sensor_id;sensor_type;location;lat;lon;timestamp;temperature;humidity
2212;DHT22;48849;48.758;9.158;2022-10-16T00:01:39;17.70;99.90
2212;DHT22;48849;48.758;9.158;2022-10-16T00:04:05;17.70;99.90
2212;DHT22;48849;48.758;9.158;2022-10-16T00:06:32;17.70;99.90
2212;DHT22;48849;48.758;9.158;2022-10-16T00:08:59;17.80;99.90
2212;DHT22;48849;48.758;9.158;2022-10-16T00:11:27;17.70;99.90
2212;DHT22;48849;48.758;9.158;2022-10-16T00:13:56;17.80;99.90
2212;DHT22;48849;48.758;9.158;2022-10-16T00:16:25;18.20;99.90
2212;DHT22;48849;48.758;9.158;2022-10-16T00:18:52;17.80;99.90
2212;DHT22;48849;48.758;9.158;2022-10-16T00:21:21;17.70;99.90
2212;DHT22;48849;48.758;9.158;2022-10-16T00:23:50;17.70;99.90
2212;DHT22;48849;48.758;9.158;2022-10-16T00:26:18;17.70;99.90
2212;DHT22;48849;48.758;9.158;2022-10-16T00:28:45;17.70;99.90
2212;DHT22;48849;48.758;9.158;2022-10-16T00:31:12;17.70;99.90
2212;DHT22;48849;48.758;9.158;2022-10-16T00:33:41;17.90;99.90
2212;DHT22;48849;48.758;9.158;2022-10-16T00:36:10;17.70;99.90
2212;DHT22;48849;48.758;9.158;2022-10-16T00:38:37;17.70;99.90
2212;DHT22;48849;48.758;9.158;2022-10-16T00:41:05;17.70;99.90
2212;DHT22;48849;48.758;9.158;2022-10-16T00:43:41;17.70;99.90
2212;DHT22;48849;48.758;9.158;2022-10-16T00:46:15;17.70;99.90
2212;DHT22;48849;48.758;9.158;2022-10-16T00:48:48;17.60;99.90
2212;DHT22;48849;48.758;9.158;2022-10-16T00:51:19;17.60;99.90
2212;DHT22;48849;48.758;9.158;2022-10-16T00:53:48;17.60;99.90
2212;DHT22;48849;48.758;9.158;2022-10-16T00:56:15;17.80;99.90
2212;DHT22;48849;48.758;9.158;2022-10-16T00:58:42;17.60;99.90
2212;DHT22;48849;48.758;9.158;2022-10-16T01:01:09;17.60;99.90
2212;DHT22;48849;48.758;9.158;2022-10-16T01:03:37;17.60;99.90
2212;DHT22;48849;48.758;9.158;2022-10-16T01:06:16;17.60;99.90
2212;DHT22;48849;48.758;9.158;2022-10-16T01:08:58;17.60;99.90
2212;DHT22;48849;48.758;9.158;2022-10-16T01:11:30;17.60;99.90
2212;DHT22;48849;48.758;9.158;2022-10-16T01:14:05;17.60;99.90
2212;DHT22;48849;48.758;9.158;2022-10-16T01:16:37;17.60;99.90
2212;DHT22;48849;48.758;9.158;2022-10-16T01:19:11;17.60;99.90
2212;DHT22;48849;48.758;9.158;2022-10-16T01:21:43;17.60;99.90
2212;DHT22;48849;48.758;9.158;2022-10-16T01:24:17;17.60;99.90
2212;DHT22;48849;48.758;9.158;2022-10-16T01:27:02;17.60;99.90
2212;DHT22;48849;48.758;9.158;2022-10-16T01:29:32;17.60;99.90
2212;DHT22;48849;48.758;9.158;2022-10-16T01:32:08;18.00;99.90
2212;DHT22;48849;48.758;9.158;2022-10-16T01:34:41;17.60;99.90
2212;DHT22;48849;48.758;9.158;2022-10-16T01:37:12;17.60;99.90
2212;DHT22;48849;48.758;9.158;2022-10-16T01:39:42;17.70;99.90
2212;DHT22;48849;48.758;9.158;2022-10-16T01:42:16;17.70;99.90
2212;DHT22;48849;48.758;9.158;2022-10-16T01:44:47;17.50;99.90
2212;DHT22;48849;48.758;9.158;2022-10-16T01:47:15;17.60;99.90
2212;DHT22;48849;48.758;9.158;2022-10-16T01:49:44;17.50;99.90
2212;DHT22;48849;48.758;9.158;2022-10-16T01:52:14;17.60;99.90
2212;DHT22;48849;48.758;9.158;2022-10-16T01:54:44;17.90;99.90
2212;DHT22;48849;48.758;9.158;2022-10-16T01:57:14;17.50;99.90
2212;DHT22;48849;48.758;9.158;2022-10-16T01:59:44;17.50;99.90
2212;DHT22;48849;48.758;9.158;2022-10-16T02:02:13;17.50;99.90
2212;DHT22;48849;48.758;9.158;2022-10-16T02:04:44;17.50;99.90
2212;DHT22;48849;48.758;9.158;2022-10-16T02:07:12;17.50;99.90
2212;DHT22;48849;48.758;9.158;2022-10-16T02:09:39;17.50;99.90
2212;DHT22;48849;48.758;9.158;2022-10-16T02:12:10;18.60;99.90
2212;DHT22;48849;48.758;9.158;2022-10-16T02:14:39;17.60;99.90
2212;DHT22;48849;48.758;9.158;2022-10-16T02:17:11;17.50;99.90
2212;DHT22;48849;48.758;9.158;2022-10-16T02:19:38;17.50;99.90
2212;DHT22;48849;48.758;9.158;2022-10-16T02:22:11;17.50;99.90
2212;DHT22;48849;48.758;9.158;2022-10-16T02:24:46;19.40;99.90
2212;DHT22;48849;48.758;9.158;2022-10-16T02:27:19;17.50;99.90
2212;DHT22;48849;48.758;9.158;2022-10-16T02:29:52;17.50;99.90
2212;DHT22;48849;48.758;9.158;2022-10-16T02:32:25;17.50;99.90
2212;DHT22;48849;48.758;9.158;2022-10-16T02:34:54;17.60;99.90
2212;DHT22;48849;48.758;9.158;2022-10-16T02:37:21;17.60;99.90
2212;DHT22;48849;48.758;9.158;2022-10-16T02:39:48;17.60;99.90
2212;DHT22;48849;48.758;9.158;2022-10-16T02:42:17;17.60;99.90
2212;DHT22;48849;48.758;9.158;2022-10-16T02:44:44;17.90;99.90
2212;DHT22;48849;48.758;9.158;2022-10-16T02:47:12;17.60;99.90
2212;DHT22;48849;48.758;9.158;2022-10-16T02:49:39;19.10;99.90
2212;DHT22;48849;48.758;9.158;2022-10-16T02:52:05;17.60;99.90
2212;DHT22;48849;48.758;9.158;2022-10-16T02:54:32;17.60;99.90
2212;DHT22;48849;48.758;9.158;2022-10-16T02:56:59;17.60;99.90
2212;DHT22;48849;48.758;9.158;2022-10-16T02:59:26;18.90;99.90
2212;DHT22;48849;48.758;9.158;2022-10-16T03:01:52;17.80;99.90
2212;DHT22;48849;48.758;9.158;2022-10-16T03:04:20;17.70;99.90
2212;DHT22;48849;48.758;9.158;2022-10-16T03:06:47;17.60;99.90
2212;DHT22;48849;48.758;9.158;2022-10-16T03:09:14;17.60;99.90
2212;DHT22;48849;48.758;9.158;2022-10-16T03:11:41;17.60;99.90
2212;DHT22;48849;48.758;9.158;2022-10-16T03:14:07;17.60;99.90
2212;DHT22;48849;48.758;9.158;2022-10-16T03:16:34;19.60;99.90
2212;DHT22;48849;48.758;9.158;2022-10-16T03:19:01;18.60;99.90
2212;DHT22;48849;48.758;9.158;2022-10-16T03:21:29;19.80;99.90
2212;DHT22;48849;48.758;9.158;2022-10-16T03:23:56;17.60;99.90
2212;DHT22;48849;48.758;9.158;2022-10-16T03:26:22;17.60;99.90
2212;DHT22;48849;48.758;9.158;2022-10-16T03:28:49;19.80;99.90
2212;DHT22;48849;48.758;9.158;2022-10-16T03:31:16;18.60;99.90
2212;DHT22;48849;48.758;9.158;2022-10-16T03:33:42;17.60;99.90
2212;DHT22;48849;48.758;9.158;2022-10-16T03:36:09;17.60;99.90
2212;DHT22;48849;48.758;9.158;2022-10-16T03:38:37;17.60;99.90
2212;DHT22;48849;48.758;9.158;2022-10-16T03:41:04;17.60;99.90
2212;DHT22;48849;48.758;9.158;2022-10-16T03:43:33;17.60;99.90
2212;DHT22;48849;48.758;9.158;2022-10-16T03:45:59;17.50;99.90
2212;DHT22;48849;48.758;9.158;2022-10-16T03:48:26;17.50;99.90
2212;DHT22;48849;48.758;9.158;2022-10-16T03:50:53;17.50;99.90
2212;DHT22;48849;48.758;9.158;2022-10-16T03:53:20;17.50;99.90
2212;DHT22;48849;48.758;9.158;2022-10-16T03:55:48;17.50;99.90
2212;DHT22;48849;48.758;9.158;2022-10-16T03:58:15;17.50;99.90
2212;DHT22;48849;48.758;9.158;2022-10-16T04:00:42;17.50;99.90
2212;DHT22;48849;48.758;9.158;2022-10-16T04:03:09;17.50;99.90
2212;DHT22;48849;48.758;9.158;2022-10-16T04:05:36;17.60;99.90
2212;DHT22;48849;48.758;9.158;2022-10-16T04:08:03;17.50;99.90
2212;DHT22;48849;48.758;9.158;2022-10-16T04:10:30;17.50;99.90
2212;DHT22;48849;48.758;9.158;2022-10-16T04:12:58;17.50;99.90
2212;DHT22;48849;48.758;9.158;2022-10-16T04:15:25;19.90;99.90
2212;DHT22;48849;48.758;9.158;2022-10-16T04:17:53;17.50;99.90
2212;DHT22;48849;48.758;9.158;2022-10-16T04:20:20;17.70;99.90
2212;DHT22;48849;48.758;9.158;2022-10-16T04:22:46;17.50;99.90
2212;DHT22;48849;48.758;9.158;2022-10-16T04:25:13;17.50;99.90
2212;DHT22;48849;48.758;9.158;2022-10-16T04:27:40;17.50;99.90
2212;DHT22;48849;48.758;9.158;2022-10-16T04:30:09;17.50;99.90
2212;DHT22;48849;48.758;9.158;2022-10-16T04:32:36;17.50;99.90
2212;DHT22;48849;48.758;9.158;2022-10-16T04:35:03;17.50;99.90
2212;DHT22;48849;48.758;9.158;2022-10-16T04:37:30;17.50;99.90
2212;DHT22;48849;48.758;9.158;2022-10-16T04:39:57;17.50;99.90
2212;DHT22;48849;48.758;9.158;2022-10-16T04:42:23;18.00;99.90
2212;DHT22;48849;48.758;9.158;2022-10-16T04:44:50;17.60;99.90
2212;DHT22;48849;48.758;9.158;2022-10-16T04:47:18;17.50;99.90
2212;DHT22;48849;48.758;9.158;2022-10-16T04:49:45;18.20;99.90
2212;DHT22;48849;48.758;9.158;2022-10-16T04:52:11;17.60;99.90
2212;DHT22;48849;48.758;9.158;2022-10-16T04:54:38;18.70;99.90
2212;DHT22;48849;48.758;9.158;2022-10-16T04:57:05;17.50;99.90
2212;DHT22;48849;48.758;9.158;2022-10-16T04:59:32;18.80;99.90
2212;DHT22;48849;48.758;9.158;2022-10-16T05:01:58;17.50;99.90
2212;DHT22;48849;48.758;9.158;2022-10-16T05:04:27;17.50;99.90
2212;DHT22;48849;48.758;9.158;2022-10-16T05:06:53;17.50;99.90
2212;DHT22;48849;48.758;9.158;2022-10-16T05:09:20;17.50;99.90
2212;DHT22;48849;48.758;9.158;2022-10-16T05:11:47;17.50;99.90
2212;DHT22;48849;48.758;9.158;2022-10-16T05:14:13;17.50;99.90
2212;DHT22;48849;48.758;9.158;2022-10-16T05:16:40;17.50;99.90
2212;DHT22;48849;48.758;9.158;2022-10-16T05:19:07;17.50;99.90
2212;DHT22;48849;48.758;9.158;2022-10-16T05:21:35;17.60;99.90
2212;DHT22;48849;48.758;9.158;2022-10-16T05:24:02;17.50;99.90
2212;DHT22;48849;48.758;9.158;2022-10-16T05:26:29;17.50;99.90
2212;DHT22;48849;48.758;9.158;2022-10-16T05:28:55;17.50;99.90
2212;DHT22;48849;48.758;9.158;2022-10-16T05:31:22;17.50;99.90
2212;DHT22;48849;48.758;9.158;2022-10-16T05:33:49;17.80;99.90
2212;DHT22;48849;48.758;9.158;2022-10-16T05:36:15;17.40;99.90
2212;DHT22;48849;48.758;9.158;2022-10-16T05:38:45;17.50;99.90
2212;DHT22;48849;48.758;9.158;2022-10-16T05:41:11;17.50;99.90
2212;DHT22;48849;48.758;9.158;2022-10-16T05:43:38;17.40;99.90
2212;DHT22;48849;48.758;9.158;2022-10-16T05:46:05;17.50;99.90
2212;DHT22;48849;48.758;9.158;2022-10-16T05:48:32;17.50;99.90
2212;DHT22;48849;48.758;9.158;2022-10-16T05:51:00;17.50;99.90
2212;DHT22;48849;48.758;9.158;2022-10-16T05:53:28;18.00;99.90
2212;DHT22;48849;48.758;9.158;2022-10-16T05:55:57;17.40;99.90
2212;DHT22;48849;48.758;9.158;2022-10-16T05:58:24;17.40;99.90
2212;DHT22;48849;48.758;9.158;2022-10-16T06:00:55;17.40;99.90
2212;DHT22;48849;48.758;9.158;2022-10-16T06:03:22;17.40;99.90
2212;DHT22;48849;48.758;9.158;2022-10-16T06:05:49;17.40;99.90
2212;DHT22;48849;48.758;9.158;2022-10-16T06:08:16;19.70;99.90
2212;DHT22;48849;48.758;9.158;2022-10-16T06:10:44;18.30;99.90
2212;DHT22;48849;48.758;9.158;2022-10-16T06:13:13;18.50;99.90
2212;DHT22;48849;48.758;9.158;2022-10-16T06:15:40;17.40;99.90
2212;DHT22;48849;48.758;9.158;2022-10-16T06:18:07;17.50;99.90
2212;DHT22;48849;48.758;9.158;2022-10-16T06:20:35;17.40;99.90
2212;DHT22;48849;48.758;9.158;2022-10-16T06:23:01;17.40;99.90
2212;DHT22;48849;48.758;9.158;2022-10-16T06:25:29;17.40;99.90
2212;DHT22;48849;48.758;9.158;2022-10-16T06:27:56;17.50;99.90
2212;DHT22;48849;48.758;9.158;2022-10-16T06:30:24;17.40;99.90
2212;DHT22;48849;48.758;9.158;2022-10-16T06:32:51;17.50;99.90
2212;DHT22;48849;48.758;9.158;2022-10-16T06:35:18;17.50;99.90
2212;DHT22;48849;48.758;9.158;2022-10-16T06:37:44;17.50;99.90
2212;DHT22;48849;48.758;9.158;2022-10-16T06:40:11;17.50;99.90
2212;DHT22;48849;48.758;9.158;2022-10-16T06:42:40;19.00;99.90
2212;DHT22;48849;48.758;9.158;2022-10-16T06:45:07;18.80;99.90
2212;DHT22;48849;48.758;9.158;2022-10-16T06:47:35;17.50;99.90
2212;DHT22;48849;48.758;9.158;2022-10-16T06:50:02;17.50;99.90
2212;DHT22;48849;48.758;9.158;2022-10-16T06:52:32;17.50;99.90
2212;DHT22;48849;48.758;9.158;2022-10-16T06:54:58;18.40;99.90
2212;DHT22;48849;48.758;9.158;2022-10-16T06:57:25;18.90;99.90
2212;DHT22;48849;48.758;9.158;2022-10-16T06:59:52;17.50;99.90
2212;DHT22;48849;48.758;9.158;2022-10-16T07:02:19;18.60;99.90
2212;DHT22;48849;48.758;9.158;2022-10-16T07:04:47;17.50;99.90
2212;DHT22;48849;48.758;9.158;2022-10-16T07:07:14;17.50;99.90
2212;DHT22;48849;48.758;9.158;2022-10-16T07:09:41;19.20;99.90
2212;DHT22;48849;48.758;9.158;2022-10-16T07:12:07;17.60;99.90
2212;DHT22;48849;48.758;9.158;2022-10-16T07:14:34;17.60;99.90
2212;DHT22;48849;48.758;9.158;2022-10-16T07:17:01;17.60;99.90
2212;DHT22;48849;48.758;9.158;2022-10-16T07:19:27;17.60;99.90
2212;DHT22;48849;48.758;9.158;2022-10-16T07:21:55;17.60;99.90
2212;DHT22;48849;48.758;9.158;2022-10-16T07:24:22;17.60;99.90
2212;DHT22;48849;48.758;9.158;2022-10-16T07:26:50;17.70;99.90
2212;DHT22;48849;48.758;9.158;2022-10-16T07:29:18;17.70;99.90
2212;DHT22;48849;48.758;9.158;2022-10-16T07:31:46;17.70;99.90
2212;DHT22;48849;48.758;9.158;2022-10-16T07:34:15;17.70;99.90
2212;DHT22;48849;48.758;9.158;2022-10-16T07:36:42;17.70;99.90
2212;DHT22;48849;48.758;9.158;2022-10-16T07:39:10;19.10;99.90
2212;DHT22;48849;48.758;9.158;2022-10-16T07:41:36;17.70;99.90
2212;DHT22;48849;48.758;9.158;2022-10-16T07:44:04;17.70;99.90
2212;DHT22;48849;48.758;9.158;2022-10-16T07:46:31;17.70;99.90
2212;DHT22;48849;48.758;9.158;2022-10-16T07:48:59;17.70;99.90
2212;DHT22;48849;48.758;9.158;2022-10-16T07:51:26;17.80;99.90
2212;DHT22;48849;48.758;9.158;2022-10-16T07:53:53;17.80;99.90
2212;DHT22;48849;48.758;9.158;2022-10-16T07:56:22;17.80;99.90
2212;DHT22;48849;48.758;9.158;2022-10-16T07:58:49;17.80;99.90
2212;DHT22;48849;48.758;9.158;2022-10-16T08:01:17;17.90;99.90
2212;DHT22;48849;48.758;9.158;2022-10-16T08:03:45;17.90;99.90
2212;DHT22;48849;48.758;9.158;2022-10-16T08:06:12;17.90;99.90
2212;DHT22;48849;48.758;9.158;2022-10-16T08:08:38;18.50;99.90
2212;DHT22;48849;48.758;9.158;2022-10-16T08:11:05;17.90;99.90
2212;DHT22;48849;48.758;9.158;2022-10-16T08:13:36;17.60;99.90
2212;DHT22;48849;48.758;9.158;2022-10-16T08:16:04;18.10;99.90
2212;DHT22;48849;48.758;9.158;2022-10-16T08:18:37;17.90;99.90
2212;DHT22;48849;48.758;9.158;2022-10-16T08:21:13;18.10;99.90
2212;DHT22;48849;48.758;9.158;2022-10-16T08:23:42;18.00;99.90
2212;DHT22;48849;48.758;9.158;2022-10-16T08:26:11;18.00;99.90
2212;DHT22;48849;48.758;9.158;2022-10-16T08:28:41;18.00;99.90
2212;DHT22;48849;48.758;9.158;2022-10-16T08:31:12;18.00;99.90
2212;DHT22;48849;48.758;9.158;2022-10-16T08:33:50;18.00;99.90
2212;DHT22;48849;48.758;9.158;2022-10-16T08:36:21;17.90;99.90
2212;DHT22;48849;48.758;9.158;2022-10-16T08:38:54;18.00;99.90
2212;DHT22;48849;48.758;9.158;2022-10-16T08:41:53;18.30;99.90
2212;DHT22;48849;48.758;9.158;2022-10-16T08:44:44;18.10;99.90
2212;DHT22;48849;48.758;9.158;2022-10-16T08:47:24;18.10;99.90
2212;DHT22;48849;48.758;9.158;2022-10-16T08:49:57;18.30;99.90
2212;DHT22;48849;48.758;9.158;2022-10-16T08:52:38;18.10;99.90
2212;DHT22;48849;48.758;9.158;2022-10-16T08:55:19;18.10;99.90
2212;DHT22;48849;48.758;9.158;2022-10-16T08:58:05;17.90;99.90
2212;DHT22;48849;48.758;9.158;2022-10-16T09:00:46;18.00;99.90
2212;DHT22;48849;48.758;9.158;2022-10-16T09:03:28;18.20;99.90
2212;DHT22;48849;48.758;9.158;2022-10-16T09:06:17;18.20;99.90
2212;DHT22;48849;48.758;9.158;2022-10-16T09:08:58;18.20;99.90
2212;DHT22;48849;48.758;9.158;2022-10-16T09:11:41;18.30;99.90
2212;DHT22;48849;48.758;9.158;2022-10-16T09:14:37;18.30;99.90
2212;DHT22;48849;48.758;9.158;2022-10-16T09:17:34;18.40;99.90
2212;DHT22;48849;48.758;9.158;2022-10-16T09:20:22;18.40;99.90
2212;DHT22;48849;48.758;9.158;2022-10-16T09:23:10;18.40;99.90
2212;DHT22;48849;48.758;9.158;2022-10-16T09:25:45;18.90;99.90
2212;DHT22;48849;48.758;9.158;2022-10-16T09:28:20;18.50;99.90
2212;DHT22;48849;48.758;9.158;2022-10-16T09:30:48;18.60;99.90
2212;DHT22;48849;48.758;9.158;2022-10-16T09:33:33;18.60;99.90
2212;DHT22;48849;48.758;9.158;2022-10-16T09:36:05;18.70;99.90
2212;DHT22;48849;48.758;9.158;2022-10-16T09:38:36;18.70;99.90
2212;DHT22;48849;48.758;9.158;2022-10-16T09:41:15;18.70;99.90
2212;DHT22;48849;48.758;9.158;2022-10-16T09:43:49;18.70;99.90
2212;DHT22;48849;48.758;9.158;2022-10-16T09:46:26;18.80;99.90
2212;DHT22;48849;48.758;9.158;2022-10-16T09:48:59;18.70;99.90
2212;DHT22;48849;48.758;9.158;2022-10-16T09:51:28;18.70;99.90
2212;DHT22;48849;48.758;9.158;2022-10-16T09:53:58;18.70;99.90
2212;DHT22;48849;48.758;9.158;2022-10-16T09:56:27;18.70;99.90
2212;DHT22;48849;48.758;9.158;2022-10-16T09:58:56;18.70;99.90
2212;DHT22;48849;48.758;9.158;2022-10-16T10:01:27;18.80;99.90
2212;DHT22;48849;48.758;9.158;2022-10-16T10:03:58;18.90;99.90
2212;DHT22;48849;48.758;9.158;2022-10-16T10:06:30;18.80;99.90
2212;DHT22;48849;48.758;9.158;2022-10-16T10:09:02;18.80;99.90
2212;DHT22;48849;48.758;9.158;2022-10-16T10:11:50;18.90;99.90
2212;DHT22;48849;48.758;9.158;2022-10-16T10:14:27;18.90;99.90
2212;DHT22;48849;48.758;9.158;2022-10-16T10:17:12;18.90;99.90
2212;DHT22;48849;48.758;9.158;2022-10-16T10:19:47;18.80;99.90
2212;DHT22;48849;48.758;9.158;2022-10-16T10:22:39;18.90;99.90
2212;DHT22;48849;48.758;9.158;2022-10-16T10:25:41;18.90;99.90
2212;DHT22;48849;48.758;9.158;2022-10-16T10:31:21;19.00;99.90
2212;DHT22;48849;48.758;9.158;2022-10-16T10:33:56;19.00;99.90
2212;DHT22;48849;48.758;9.158;2022-10-16T10:36:30;19.00;99.90
2212;DHT22;48849;48.758;9.158;2022-10-16T10:39:06;19.10;99.90
2212;DHT22;48849;48.758;9.158;2022-10-16T10:45:04;19.10;99.90
2212;DHT22;48849;48.758;9.158;2022-10-16T10:47:51;19.10;99.90
2212;DHT22;48849;48.758;9.158;2022-10-16T10:50:25;19.10;99.90
2212;DHT22;48849;48.758;9.158;2022-10-16T10:53:02;19.20;99.90
2212;DHT22;48849;48.758;9.158;2022-10-16T10:55:39;19.20;99.90
2212;DHT22;48849;48.758;9.158;2022-10-16T10:58:29;19.20;99.90
2212;DHT22;48849;48.758;9.158;2022-10-16T11:01:08;19.30;99.90
2212;DHT22;48849;48.758;9.158;2022-10-16T11:03:58;19.30;99.90
2212;DHT22;48849;48.758;9.158;2022-10-16T11:06:31;19.40;99.90
2212;DHT22;48849;48.758;9.158;2022-10-16T11:09:08;19.50;99.90
2212;DHT22;48849;48.758;9.158;2022-10-16T11:11:41;19.60;99.90
2212;DHT22;48849;48.758;9.158;2022-10-16T11:14:15;19.70;99.90
2212;DHT22;48849;48.758;9.158;2022-10-16T11:16:50;19.90;99.90
2212;DHT22;48849;48.758;9.158;2022-10-16T11:19:28;19.80;99.90
2212;DHT22;48849;48.758;9.158;2022-10-16T11:22:04;19.80;99.90
2212;DHT22;48849;48.758;9.158;2022-10-16T11:24:42;19.80;99.90
2212;DHT22;48849;48.758;9.158;2022-10-16T11:27:15;19.80;99.90
2212;DHT22;48849;48.758;9.158;2022-10-16T11:29:49;19.80;99.90
2212;DHT22;48849;48.758;9.158;2022-10-16T11:32:22;19.90;99.90
2212;DHT22;48849;48.758;9.158;2022-10-16T11:34:59;19.90;99.90
2212;DHT22;48849;48.758;9.158;2022-10-16T11:37:33;20.10;99.90
2212;DHT22;48849;48.758;9.158;2022-10-16T11:40:18;20.20;99.90
2212;DHT22;48849;48.758;9.158;2022-10-16T11:42:50;20.40;99.90
2212;DHT22;48849;48.758;9.158;2022-10-16T11:45:26;20.50;99.90
2212;DHT22;48849;48.758;9.158;2022-10-16T11:48:00;20.60;99.90
2212;DHT22;48849;48.758;9.158;2022-10-16T11:50:33;20.80;99.90
2212;DHT22;48849;48.758;9.158;2022-10-16T11:53:04;20.90;99.90
2212;DHT22;48849;48.758;9.158;2022-10-16T11:55:39;21.10;99.90
2212;DHT22;48849;48.758;9.158;2022-10-16T11:58:13;21.20;99.90
2212;DHT22;48849;48.758;9.158;2022-10-16T12:00:46;20.90;99.90
2212;DHT22;48849;48.758;9.158;2022-10-16T12:03:20;20.90;99.90
2212;DHT22;48849;48.758;9.158;2022-10-16T12:06:04;20.90;99.90
2212;DHT22;48849;48.758;9.158;2022-10-16T12:08:34;20.80;99.90
2212;DHT22;48849;48.758;9.158;2022-10-16T12:11:31;20.80;99.90
2212;DHT22;48849;48.758;9.158;2022-10-16T12:14:17;20.70;99.90
2212;DHT22;48849;48.758;9.158;2022-10-16T12:16:57;20.70;99.90
2212;DHT22;48849;48.758;9.158;2022-10-16T12:19:32;20.60;99.90
2212;DHT22;48849;48.758;9.158;2022-10-16T12:22:03;20.50;99.90
2212;DHT22;48849;48.758;9.158;2022-10-16T12:24:35;20.40;99.90
2212;DHT22;48849;48.758;9.158;2022-10-16T12:27:23;20.40;99.90
2212;DHT22;48849;48.758;9.158;2022-10-16T12:29:55;20.30;99.90
2212;DHT22;48849;48.758;9.158;2022-10-16T12:32:28;20.30;99.90
2212;DHT22;48849;48.758;9.158;2022-10-16T12:34:58;20.20;99.90
2212;DHT22;48849;48.758;9.158;2022-10-16T12:37:31;20.30;99.90
2212;DHT22;48849;48.758;9.158;2022-10-16T12:39:59;20.40;99.90
2212;DHT22;48849;48.758;9.158;2022-10-16T12:42:42;20.40;99.90
2212;DHT22;48849;48.758;9.158;2022-10-16T12:45:25;19.90;99.90
2212;DHT22;48849;48.758;9.158;2022-10-16T12:47:54;20.10;99.90
2212;DHT22;48849;48.758;9.158;2022-10-16T12:50:32;20.20;99.90
2212;DHT22;48849;48.758;9.158;2022-10-16T12:53:02;20.10;99.90
2212;DHT22;48849;48.758;9.158;2022-10-16T12:55:46;20.10;99.90
2212;DHT22;48849;48.758;9.158;2022-10-16T12:58:51;20.00;99.90
2212;DHT22;48849;48.758;9.158;2022-10-16T13:01:29;20.00;99.90
2212;DHT22;48849;48.758;9.158;2022-10-16T13:04:20;20.00;99.90
2212;DHT22;48849;48.758;9.158;2022-10-16T13:06:55;19.90;99.90
2212;DHT22;48849;48.758;9.158;2022-10-16T13:09:43;19.90;99.90
2212;DHT22;48849;48.758;9.158;2022-10-16T13:12:27;19.80;99.90
2212;DHT22;48849;48.758;9.158;2022-10-16T13:15:20;19.80;99.90
2212;DHT22;48849;48.758;9.158;2022-10-16T13:17:54;19.80;99.90
2212;DHT22;48849;48.758;9.158;2022-10-16T13:20:35;19.80;99.90
2212;DHT22;48849;48.758;9.158;2022-10-16T13:23:12;19.80;99.90
2212;DHT22;48849;48.758;9.158;2022-10-16T13:25:58;19.80;99.90
2212;DHT22;48849;48.758;9.158;2022-10-16T13:28:33;19.70;99.90
2212;DHT22;48849;48.758;9.158;2022-10-16T13:31:09;19.70;99.90
2212;DHT22;48849;48.758;9.158;2022-10-16T13:33:45;19.90;99.90
2212;DHT22;48849;48.758;9.158;2022-10-16T13:36:24;19.70;99.90
2212;DHT22;48849;48.758;9.158;2022-10-16T13:39:12;19.70;99.90
2212;DHT22;48849;48.758;9.158;2022-10-16T13:41:40;19.70;99.90
2212;DHT22;48849;48.758;9.158;2022-10-16T13:44:14;19.60;99.90
2212;DHT22;48849;48.758;9.158;2022-10-16T13:46:44;19.60;99.90
2212;DHT22;48849;48.758;9.158;2022-10-16T13:49:13;19.60;99.90
2212;DHT22;48849;48.758;9.158;2022-10-16T13:51:53;19.60;99.90
2212;DHT22;48849;48.758;9.158;2022-10-16T13:54:25;19.60;99.90
2212;DHT22;48849;48.758;9.158;2022-10-16T13:56:55;19.60;99.90
2212;DHT22;48849;48.758;9.158;2022-10-16T13:59:24;19.60;99.90
2212;DHT22;48849;48.758;9.158;2022-10-16T14:01:53;19.60;99.90
2212;DHT22;48849;48.758;9.158;2022-10-16T14:04:21;19.60;99.90
2212;DHT22;48849;48.758;9.158;2022-10-16T14:06:50;20.90;99.90
2212;DHT22;48849;48.758;9.158;2022-10-16T14:09:22;19.60;99.90
2212;DHT22;48849;48.758;9.158;2022-10-16T14:11:51;20.10;99.90
2212;DHT22;48849;48.758;9.158;2022-10-16T14:14:19;19.60;99.90
2212;DHT22;48849;48.758;9.158;2022-10-16T14:16:47;19.50;99.90
2212;DHT22;48849;48.758;9.158;2022-10-16T14:19:21;19.50;99.90
2212;DHT22;48849;48.758;9.158;2022-10-16T14:21:49;19.50;99.90
2212;DHT22;48849;48.758;9.158;2022-10-16T14:24:25;19.50;99.90
2212;DHT22;48849;48.758;9.158;2022-10-16T14:26:52;19.50;99.90
2212;DHT22;48849;48.758;9.158;2022-10-16T14:29:20;19.50;99.90
2212;DHT22;48849;48.758;9.158;2022-10-16T14:31:55;19.50;99.90
2212;DHT22;48849;48.758;9.158;2022-10-16T14:34:25;19.50;99.90
2212;DHT22;48849;48.758;9.158;2022-10-16T14:36:53;20.30;99.90
2212;DHT22;48849;48.758;9.158;2022-10-16T14:39:22;19.50;99.90
2212;DHT22;48849;48.758;9.158;2022-10-16T14:41:50;19.50;99.90
2212;DHT22;48849;48.758;9.158;2022-10-16T14:44:18;19.80;99.90
2212;DHT22;48849;48.758;9.158;2022-10-16T14:46:47;19.50;99.90
2212;DHT22;48849;48.758;9.158;2022-10-16T14:49:17;21.20;99.90
2212;DHT22;48849;48.758;9.158;2022-10-16T14:51:46;19.50;99.90
2212;DHT22;48849;48.758;9.158;2022-10-16T14:54:14;19.50;99.90
2212;DHT22;48849;48.758;9.158;2022-10-16T14:56:46;19.40;99.90
2212;DHT22;48849;48.758;9.158;2022-10-16T14:59:17;19.40;99.90
2212;DHT22;48849;48.758;9.158;2022-10-16T15:01:45;19.40;99.90
2212;DHT22;48849;48.758;9.158;2022-10-16T15:04:12;19.40;99.90
2212;DHT22;48849;48.758;9.158;2022-10-16T15:06:39;19.40;99.90
2212;DHT22;48849;48.758;9.158;2022-10-16T15:09:08;21.40;99.90
2212;DHT22;48849;48.758;9.158;2022-10-16T15:11:34;19.40;99.90
2212;DHT22;48849;48.758;9.158;2022-10-16T15:14:01;19.80;99.90
2212;DHT22;48849;48.758;9.158;2022-10-16T15:16:29;19.40;99.90
2212;DHT22;48849;48.758;9.158;2022-10-16T15:18:55;19.30;99.90
2212;DHT22;48849;48.758;9.158;2022-10-16T15:21:25;19.30;99.90
2212;DHT22;48849;48.758;9.158;2022-10-16T15:23:52;19.30;99.90
2212;DHT22;48849;48.758;9.158;2022-10-16T15:26:20;20.40;99.90
2212;DHT22;48849;48.758;9.158;2022-10-16T15:28:47;21.40;99.90
2212;DHT22;48849;48.758;9.158;2022-10-16T15:31:14;21.40;99.90
2212;DHT22;48849;48.758;9.158;2022-10-16T15:33:41;21.60;99.90
2212;DHT22;48849;48.758;9.158;2022-10-16T15:36:07;21.50;99.90
2212;DHT22;48849;48.758;9.158;2022-10-16T15:38:34;21.60;99.90
2212;DHT22;48849;48.758;9.158;2022-10-16T15:41:01;21.50;99.90
2212;DHT22;48849;48.758;9.158;2022-10-16T15:43:29;19.30;99.90
2212;DHT22;48849;48.758;9.158;2022-10-16T15:46:00;19.30;99.90
2212;DHT22;48849;48.758;9.158;2022-10-16T15:48:28;19.20;99.90
2212;DHT22;48849;48.758;9.158;2022-10-16T15:50:55;19.20;99.90
2212;DHT22;48849;48.758;9.158;2022-10-16T15:53:22;19.20;99.90
2212;DHT22;48849;48.758;9.158;2022-10-16T15:55:48;19.20;99.90
2212;DHT22;48849;48.758;9.158;2022-10-16T15:58:15;21.10;99.90
2212;DHT22;48849;48.758;9.158;2022-10-16T16:00:43;19.10;99.90
2212;DHT22;48849;48.758;9.158;2022-10-16T16:03:10;20.70;99.90
2212;DHT22;48849;48.758;9.158;2022-10-16T16:05:38;20.20;99.90
2212;DHT22;48849;48.758;9.158;2022-10-16T16:08:05;19.10;99.90
2212;DHT22;48849;48.758;9.158;2022-10-16T16:10:32;19.90;99.90
2212;DHT22;48849;48.758;9.158;2022-10-16T16:12:58;19.30;99.90
2212;DHT22;48849;48.758;9.158;2022-10-16T16:15:25;19.00;99.90
2212;DHT22;48849;48.758;9.158;2022-10-16T16:17:53;19.10;99.90